sensor_id;sensor_type;location;lat;lon;timestamp;pressure;altitude;pressure_sealevel;temperature;humidity
69035;BME280;56091;55.756;37.412;2022-12-07T00:01:42;100113.88;;;-6.77;45.83
69035;BME280;56091;55.756;37.412;2022-12-07T00:06:45;100112.44;;;-6.81;45.88
69035;BME280;56091;55.756;37.412;2022-12-07T00:11:49;100110.19;;;-6.75;45.59
69035;BME280;56091;55.756;37.412;2022-12-07T00:16:51;100101.00;;;-6.80;45.88
69035;BME280;56091;55.756;37.412;2022-12-07T00:21:52;100089.94;;;-6.95;45.89
69035;BME280;56091;55.756;37.412;2022-12-07T00:26:53;100100.91;;;-6.90;45.80
69035;BME280;56091;55.756;37.412;2022-12-07T00:31:56;100104.84;;;-6.96;46.13
69035;BME280;56091;55.756;37.412;2022-12-07T00:36:57;100073.16;;;-7.27;46.04
69035;BME280;56091;55.756;37.412;2022-12-07T00:42:00;100107.50;;;-7.18;46.43
69035;BME280;56091;55.756;37.412;2022-12-07T00:47:01;100104.16;;;-7.09;46.32
69035;BME280;56091;55.756;37.412;2022-12-07T00:52:02;100083.44;;;-7.23;46.52
69035;BME280;56091;55.756;37.412;2022-12-07T00:57:03;100114.28;;;-7.16;46.52
69035;BME280;56091;55.756;37.412;2022-12-07T01:02:03;100112.50;;;-7.15;46.63
69035;BME280;56091;55.756;37.412;2022-12-07T01:07:04;100101.66;;;-7.22;46.64
69035;BME280;56091;55.756;37.412;2022-12-07T01:12:05;100094.03;;;-7.25;46.54
69035;BME280;56091;55.756;37.412;2022-12-07T01:17:12;100106.81;;;-7.32;46.43
69035;BME280;56091;55.756;37.412;2022-12-07T01:22:15;100095.72;;;-7.35;46.75
69035;BME280;56091;55.756;37.412;2022-12-07T01:27:16;100103.34;;;-7.43;46.76
69035;BME280;56091;55.756;37.412;2022-12-07T01:32:17;100093.31;;;-7.50;46.98
69035;BME280;56091;55.756;37.412;2022-12-07T01:37:18;100080.81;;;-7.57;47.20
69035;BME280;56091;55.756;37.412;2022-12-07T01:42:19;100049.47;;;-7.70;47.20
69035;BME280;56091;55.756;37.412;2022-12-07T01:47:20;100061.41;;;-7.55;46.86
69035;BME280;56091;55.756;37.412;2022-12-07T01:52:30;100069.72;;;-7.50;47.07
69035;BME280;56091;55.756;37.412;2022-12-07T01:57:34;100078.91;;;-7.55;47.08
69035;BME280;56091;55.756;37.412;2022-12-07T02:02:43;100057.09;;;-7.67;47.24
69035;BME280;56091;55.756;37.412;2022-12-07T02:07:46;100054.84;;;-7.60;47.04
69035;BME280;56091;55.756;37.412;2022-12-07T02:13:23;100069.88;;;-7.74;47.57
69035;BME280;56091;55.756;37.412;2022-12-07T02:34:13;100071.75;;;-7.76;47.97
69035;BME280;56091;55.756;37.412;2022-12-07T02:39:21;100058.53;;;-7.74;48.23
69035;BME280;56091;55.756;37.412;2022-12-07T02:44:25;100049.94;;;-7.76;48.29
69035;BME280;56091;55.756;37.412;2022-12-07T02:49:29;100022.44;;;-7.93;48.03
69035;BME280;56091;55.756;37.412;2022-12-07T02:54:30;100042.78;;;-7.86;48.13
69035;BME280;56091;55.756;37.412;2022-12-07T03:05:17;100055.66;;;-7.82;48.32
69035;BME280;56091;55.756;37.412;2022-12-07T03:10:28;100058.19;;;-7.81;48.43
69035;BME280;56091;55.756;37.412;2022-12-07T03:15:43;100060.41;;;-7.88;48.44
69035;BME280;56091;55.756;37.412;2022-12-07T03:20:49;100036.38;;;-8.04;48.57
69035;BME280;56091;55.756;37.412;2022-12-07T03:25:55;100049.72;;;-7.85;48.72
69035;BME280;56091;55.756;37.412;2022-12-07T03:31:31;100051.75;;;-7.77;48.82
69035;BME280;56091;55.756;37.412;2022-12-07T03:41:34;100020.53;;;-7.91;48.75
69035;BME280;56091;55.756;37.412;2022-12-07T03:51:56;100035.31;;;-7.68;48.84
69035;BME280;56091;55.756;37.412;2022-12-07T03:57:01;100030.06;;;-7.56;49.88
69035;BME280;56091;55.756;37.412;2022-12-07T04:02:07;100010.22;;;-7.27;48.68
69035;BME280;56091;55.756;37.412;2022-12-07T04:07:08;100029.78;;;-7.19;48.44
69035;BME280;56091;55.756;37.412;2022-12-07T04:12:09;100029.69;;;-7.40;48.73
69035;BME280;56091;55.756;37.412;2022-12-07T04:17:13;100034.13;;;-7.52;49.06
69035;BME280;56091;55.756;37.412;2022-12-07T04:22:13;100038.88;;;-7.46;49.37
69035;BME280;56091;55.756;37.412;2022-12-07T04:27:17;100026.63;;;-7.57;49.92
69035;BME280;56091;55.756;37.412;2022-12-07T04:32:18;100025.78;;;-7.57;50.03
69035;BME280;56091;55.756;37.412;2022-12-07T04:37:18;100020.06;;;-7.62;50.25
69035;BME280;56091;55.756;37.412;2022-12-07T04:42:38;100022.81;;;-7.64;51.12
69035;BME280;56091;55.756;37.412;2022-12-07T04:47:57;100019.09;;;-7.50;53.04
69035;BME280;56091;55.756;37.412;2022-12-07T04:53:17;100018.63;;;-7.00;51.24
69035;BME280;56091;55.756;37.412;2022-12-07T04:58:37;100023.69;;;-7.20;50.52
69035;BME280;56091;55.756;37.412;2022-12-07T05:16:48;100027.06;;;-7.40;52.08
69035;BME280;56091;55.756;37.412;2022-12-07T05:28:24;100017.06;;;-7.47;52.34
69035;BME280;56091;55.756;37.412;2022-12-07T05:38:44;100024.44;;;-7.29;52.98
69035;BME280;56091;55.756;37.412;2022-12-07T05:43:45;100023.59;;;-7.18;52.81
69035;BME280;56091;55.756;37.412;2022-12-07T05:49:26;100023.09;;;-6.80;59.32
69035;BME280;56091;55.756;37.412;2022-12-07T05:54:29;100008.44;;;-6.29;51.45
69035;BME280;56091;55.756;37.412;2022-12-07T06:00:08;100013.81;;;-6.52;51.62
69035;BME280;56091;55.756;37.412;2022-12-07T06:05:27;100013.94;;;-6.85;52.36
69035;BME280;56091;55.756;37.412;2022-12-07T06:11:18;100013.72;;;-6.82;53.22
69035;BME280;56091;55.756;37.412;2022-12-07T06:16:37;100005.56;;;-6.79;53.14
69035;BME280;56091;55.756;37.412;2022-12-07T06:21:38;100011.34;;;-6.64;53.32
69035;BME280;56091;55.756;37.412;2022-12-07T06:26:39;100008.38;;;-6.60;52.89
69035;BME280;56091;55.756;37.412;2022-12-07T06:31:40;100014.50;;;-6.50;52.88
69035;BME280;56091;55.756;37.412;2022-12-07T06:36:42;100009.78;;;-6.35;53.04
69035;BME280;56091;55.756;37.412;2022-12-07T06:41:43;100001.06;;;-6.35;53.16
69035;BME280;56091;55.756;37.412;2022-12-07T06:46:44;100010.09;;;-6.28;53.71
69035;BME280;56091;55.756;37.412;2022-12-07T06:51:45;100003.97;;;-5.77;52.85
69035;BME280;56091;55.756;37.412;2022-12-07T07:02:48;100016.31;;;-6.08;52.98
69035;BME280;56091;55.756;37.412;2022-12-07T07:07:49;100004.97;;;-6.30;53.44
69035;BME280;56091;55.756;37.412;2022-12-07T07:12:51;100005.03;;;-6.20;53.56
69035;BME280;56091;55.756;37.412;2022-12-07T07:17:51;100001.47;;;-6.09;53.43
69035;BME280;56091;55.756;37.412;2022-12-07T07:22:56;100015.03;;;-6.14;53.18
69035;BME280;56091;55.756;37.412;2022-12-07T07:28:00;100006.56;;;-6.17;53.15
69035;BME280;56091;55.756;37.412;2022-12-07T07:33:01;99990.84;;;-6.07;52.69
69035;BME280;56091;55.756;37.412;2022-12-07T07:38:06;99984.94;;;-5.90;52.55
69035;BME280;56091;55.756;37.412;2022-12-07T07:43:06;99952.56;;;-6.10;51.93
69035;BME280;56091;55.756;37.412;2022-12-07T07:48:07;99979.69;;;-5.90;51.86
69035;BME280;56091;55.756;37.412;2022-12-07T07:53:08;99970.75;;;-5.88;51.36
69035;BME280;56091;55.756;37.412;2022-12-07T07:58:09;99975.28;;;-5.99;51.71
69035;BME280;56091;55.756;37.412;2022-12-07T08:03:09;99977.47;;;-6.04;51.50
69035;BME280;56091;55.756;37.412;2022-12-07T08:08:10;99960.34;;;-6.30;51.89
69035;BME280;56091;55.756;37.412;2022-12-07T08:13:11;99961.16;;;-6.29;51.62
69035;BME280;56091;55.756;37.412;2022-12-07T08:18:13;99969.22;;;-6.42;51.58
69035;BME280;56091;55.756;37.412;2022-12-07T08:23:14;99927.94;;;-6.61;51.84
69035;BME280;56091;55.756;37.412;2022-12-07T08:28:15;99965.72;;;-6.31;51.79
69035;BME280;56091;55.756;37.412;2022-12-07T08:33:16;99965.00;;;-6.33;51.27
69035;BME280;56091;55.756;37.412;2022-12-07T08:38:17;99967.94;;;-6.48;51.68
69035;BME280;56091;55.756;37.412;2022-12-07T08:43:17;99963.41;;;-6.45;51.77
69035;BME280;56091;55.756;37.412;2022-12-07T08:48:18;99950.13;;;-6.23;51.52
69035;BME280;56091;55.756;37.412;2022-12-07T08:53:22;99950.91;;;-6.32;51.69
69035;BME280;56091;55.756;37.412;2022-12-07T08:58:24;99945.97;;;-6.25;51.20
69035;BME280;56091;55.756;37.412;2022-12-07T09:03:25;99936.75;;;-6.20;50.92
69035;BME280;56091;55.756;37.412;2022-12-07T09:08:33;99944.72;;;-6.31;51.04
69035;BME280;56091;55.756;37.412;2022-12-07T09:13:35;99930.25;;;-6.16;50.20
69035;BME280;56091;55.756;37.412;2022-12-07T09:18:37;99933.75;;;-6.05;50.19
69035;BME280;56091;55.756;37.412;2022-12-07T09:23:38;99907.00;;;-6.20;50.28
69035;BME280;56091;55.756;37.412;2022-12-07T09:28:39;99909.63;;;-6.20;49.70
69035;BME280;56091;55.756;37.412;2022-12-07T09:33:40;99924.78;;;-5.93;49.48
69035;BME280;56091;55.756;37.412;2022-12-07T09:38:42;99908.38;;;-5.76;49.58
69035;BME280;56091;55.756;37.412;2022-12-07T09:43:43;99913.84;;;-5.48;49.03
69035;BME280;56091;55.756;37.412;2022-12-07T09:48:50;99907.03;;;-5.51;48.62
69035;BME280;56091;55.756;37.412;2022-12-07T09:53:54;99882.81;;;-5.54;48.40
69035;BME280;56091;55.756;37.412;2022-12-07T09:58:59;99895.19;;;-5.25;48.00
69035;BME280;56091;55.756;37.412;2022-12-07T10:09:19;99881.75;;;-5.32;47.48
69035;BME280;56091;55.756;37.412;2022-12-07T10:14:20;99801.19;;;-5.62;46.97
69035;BME280;56091;55.756;37.412;2022-12-07T10:19:29;99882.41;;;-5.01;46.32
69035;BME280;56091;55.756;37.412;2022-12-07T10:24:30;99862.09;;;-4.99;48.30
69035;BME280;56091;55.756;37.412;2022-12-07T10:29:39;99874.03;;;-4.57;45.46
69035;BME280;56091;55.756;37.412;2022-12-07T10:34:40;99868.53;;;-4.74;45.33
69035;BME280;56091;55.756;37.412;2022-12-07T10:39:43;99863.16;;;-4.92;45.66
69035;BME280;56091;55.756;37.412;2022-12-07T10:44:44;99865.41;;;-5.16;45.98
69035;BME280;56091;55.756;37.412;2022-12-07T10:55:22;99857.66;;;-5.18;46.48
69035;BME280;56091;55.756;37.412;2022-12-07T11:00:25;99829.84;;;-5.30;46.33
69035;BME280;56091;55.756;37.412;2022-12-07T11:05:38;99846.31;;;-5.47;46.56
69035;BME280;56091;55.756;37.412;2022-12-07T11:37:34;99817.72;;;-4.74;45.92
69035;BME280;56091;55.756;37.412;2022-12-07T11:48:35;99800.50;;;-5.25;47.12
69035;BME280;56091;55.756;37.412;2022-12-07T11:54:11;99786.09;;;-5.41;47.28
69035;BME280;56091;55.756;37.412;2022-12-07T11:59:13;99787.22;;;-5.63;47.72
69035;BME280;56091;55.756;37.412;2022-12-07T12:04:26;99786.66;;;-5.66;48.35
69035;BME280;56091;55.756;37.412;2022-12-07T12:09:40;99783.91;;;-5.75;48.72
69035;BME280;56091;55.756;37.412;2022-12-07T12:20:43;99783.19;;;-5.77;49.03
69035;BME280;56091;55.756;37.412;2022-12-07T12:31:08;99771.97;;;-5.30;48.93
69035;BME280;56091;55.756;37.412;2022-12-07T12:46:53;99784.13;;;-6.17;50.33
69035;BME280;56091;55.756;37.412;2022-12-07T12:51:56;99782.94;;;-6.43;51.06
69035;BME280;56091;55.756;37.412;2022-12-07T12:57:24;99776.31;;;-6.48;51.51
69035;BME280;56091;55.756;37.412;2022-12-07T13:23:55;99759.59;;;-7.08;54.05
69035;BME280;56091;55.756;37.412;2022-12-07T13:29:13;99774.75;;;-6.60;56.82
69035;BME280;56091;55.756;37.412;2022-12-07T13:34:36;99767.13;;;-6.63;53.28
69035;BME280;56091;55.756;37.412;2022-12-07T13:39:55;99763.22;;;-6.78;53.75
69035;BME280;56091;55.756;37.412;2022-12-07T13:45:13;99715.75;;;-7.27;54.64
69035;BME280;56091;55.756;37.412;2022-12-07T13:50:31;99729.69;;;-7.48;55.28
69035;BME280;56091;55.756;37.412;2022-12-07T13:55:32;99732.00;;;-7.54;55.91
69035;BME280;56091;55.756;37.412;2022-12-07T14:00:33;99749.13;;;-7.50;55.62
69035;BME280;56091;55.756;37.412;2022-12-07T14:05:35;99744.94;;;-7.41;55.69
69035;BME280;56091;55.756;37.412;2022-12-07T14:10:40;99745.88;;;-7.21;55.24
69035;BME280;56091;55.756;37.412;2022-12-07T14:15:42;99708.16;;;-7.30;54.85
69035;BME280;56091;55.756;37.412;2022-12-07T14:20:44;99741.50;;;-7.32;55.18
69035;BME280;56091;55.756;37.412;2022-12-07T14:25:47;99713.97;;;-7.69;55.55
69035;BME280;56091;55.756;37.412;2022-12-07T14:30:48;99745.88;;;-7.63;55.83
69035;BME280;56091;55.756;37.412;2022-12-07T14:35:49;99727.59;;;-7.75;56.19
69035;BME280;56091;55.756;37.412;2022-12-07T14:40:51;99730.34;;;-7.55;55.97
69035;BME280;56091;55.756;37.412;2022-12-07T14:45:52;99726.06;;;-7.56;55.72
69035;BME280;56091;55.756;37.412;2022-12-07T14:50:53;99727.34;;;-7.51;55.90
69035;BME280;56091;55.756;37.412;2022-12-07T14:55:57;99734.28;;;-6.98;54.27
69035;BME280;56091;55.756;37.412;2022-12-07T15:00:59;99723.25;;;-7.22;55.05
69035;BME280;56091;55.756;37.412;2022-12-07T15:06:00;99715.59;;;-7.56;55.79
69035;BME280;56091;55.756;37.412;2022-12-07T15:11:01;99709.66;;;-7.58;56.11
69035;BME280;56091;55.756;37.412;2022-12-07T15:16:02;99707.59;;;-7.55;56.25
69035;BME280;56091;55.756;37.412;2022-12-07T15:21:03;99715.81;;;-7.59;56.57
69035;BME280;56091;55.756;37.412;2022-12-07T15:26:04;99689.63;;;-7.59;56.55
69035;BME280;56091;55.756;37.412;2022-12-07T15:31:16;99695.94;;;-7.41;56.46
69035;BME280;56091;55.756;37.412;2022-12-07T15:36:23;99695.84;;;-7.60;56.74
69035;BME280;56091;55.756;37.412;2022-12-07T15:41:25;99696.66;;;-7.60;56.79
69035;BME280;56091;55.756;37.412;2022-12-07T15:46:33;99682.97;;;-7.42;56.47
69035;BME280;56091;55.756;37.412;2022-12-07T15:51:37;99678.03;;;-6.55;54.37
69035;BME280;56091;55.756;37.412;2022-12-07T15:56:38;99667.59;;;-6.95;55.04
69035;BME280;56091;55.756;37.412;2022-12-07T16:01:39;99663.59;;;-7.30;55.86
69035;BME280;56091;55.756;37.412;2022-12-07T16:06:40;99675.34;;;-7.24;56.59
69035;BME280;56091;55.756;37.412;2022-12-07T16:11:40;99667.16;;;-7.31;56.61
69035;BME280;56091;55.756;37.412;2022-12-07T16:16:42;99690.50;;;-7.28;56.52
69035;BME280;56091;55.756;37.412;2022-12-07T16:21:42;99673.91;;;-7.29;56.93
69035;BME280;56091;55.756;37.412;2022-12-07T16:26:44;99680.09;;;-7.39;57.34
69035;BME280;56091;55.756;37.412;2022-12-07T16:31:45;99675.88;;;-7.52;57.42
69035;BME280;56091;55.756;37.412;2022-12-07T16:36:46;99636.97;;;-7.56;57.60
69035;BME280;56091;55.756;37.412;2022-12-07T16:41:47;99670.28;;;-7.68;58.50
69035;BME280;56091;55.756;37.412;2022-12-07T16:46:48;99670.75;;;-7.74;59.17
69035;BME280;56091;55.756;37.412;2022-12-07T16:51:49;99673.59;;;-7.66;59.22
69035;BME280;56091;55.756;37.412;2022-12-07T16:56:53;99660.09;;;-7.82;59.51
69035;BME280;56091;55.756;37.412;2022-12-07T17:01:54;99646.28;;;-7.63;59.52
69035;BME280;56091;55.756;37.412;2022-12-07T17:06:55;99653.63;;;-7.57;59.16
69035;BME280;56091;55.756;37.412;2022-12-07T17:11:56;99642.59;;;-7.82;59.74
69035;BME280;56091;55.756;37.412;2022-12-07T17:16:57;99620.69;;;-8.02;60.05
69035;BME280;56091;55.756;37.412;2022-12-07T17:21:58;99651.09;;;-7.69;59.72
69035;BME280;56091;55.756;37.412;2022-12-07T17:26:59;99645.91;;;-7.80;60.16
69035;BME280;56091;55.756;37.412;2022-12-07T17:32:00;99647.75;;;-7.71;59.93
69035;BME280;56091;55.756;37.412;2022-12-07T17:37:01;99644.00;;;-7.57;59.66
69035;BME280;56091;55.756;37.412;2022-12-07T17:42:01;99641.50;;;-7.58;59.46
69035;BME280;56091;55.756;37.412;2022-12-07T17:47:21;99644.13;;;-7.58;59.65
69035;BME280;56091;55.756;37.412;2022-12-07T17:52:22;99643.69;;;-7.63;59.67
69035;BME280;56091;55.756;37.412;2022-12-07T17:57:42;99604.06;;;-7.91;59.78
69035;BME280;56091;55.756;37.412;2022-12-07T18:02:43;99630.41;;;-7.72;59.91
69035;BME280;56091;55.756;37.412;2022-12-07T18:07:46;99580.91;;;-7.96;59.90
69035;BME280;56091;55.756;37.412;2022-12-07T18:12:49;99624.31;;;-7.72;60.28
69035;BME280;56091;55.756;37.412;2022-12-07T18:17:50;99627.09;;;-7.43;59.63
69035;BME280;56091;55.756;37.412;2022-12-07T18:22:55;99621.44;;;-7.69;60.34
69035;BME280;56091;55.756;37.412;2022-12-07T18:27:56;99629.09;;;-7.56;60.24
69035;BME280;56091;55.756;37.412;2022-12-07T18:32:57;99624.38;;;-7.62;60.58
69035;BME280;56091;55.756;37.412;2022-12-07T18:37:58;99625.75;;;-7.68;60.70
69035;BME280;56091;55.756;37.412;2022-12-07T18:42:59;99594.63;;;-7.82;60.95
69035;BME280;56091;55.756;37.412;2022-12-07T18:47:59;99610.13;;;-7.70;61.18
69035;BME280;56091;55.756;37.412;2022-12-07T18:53:01;99582.22;;;-7.80;60.87
69035;BME280;56091;55.756;37.412;2022-12-07T18:58:03;99583.31;;;-7.83;60.97
69035;BME280;56091;55.756;37.412;2022-12-07T19:03:07;99592.94;;;-7.83;61.48
69035;BME280;56091;55.756;37.412;2022-12-07T19:08:08;99569.16;;;-8.01;61.77
69035;BME280;56091;55.756;37.412;2022-12-07T19:13:09;99578.97;;;-7.94;61.85
69035;BME280;56091;55.756;37.412;2022-12-07T19:18:10;99572.22;;;-7.96;61.97
69035;BME280;56091;55.756;37.412;2022-12-07T19:23:10;99565.19;;;-8.17;62.38
69035;BME280;56091;55.756;37.412;2022-12-07T19:28:11;99573.22;;;-8.09;62.29
69035;BME280;56091;55.756;37.412;2022-12-07T19:33:13;99565.19;;;-8.17;62.73
69035;BME280;56091;55.756;37.412;2022-12-07T19:38:13;99569.22;;;-8.13;62.53
69035;BME280;56091;55.756;37.412;2022-12-07T19:43:14;99562.00;;;-8.20;62.82
69035;BME280;56091;55.756;37.412;2022-12-07T19:48:15;99577.41;;;-8.06;62.63
69035;BME280;56091;55.756;37.412;2022-12-07T19:53:16;99571.81;;;-8.13;62.74
69035;BME280;56091;55.756;37.412;2022-12-07T19:58:17;99556.38;;;-8.16;62.79
69035;BME280;56091;55.756;37.412;2022-12-07T20:03:17;99571.06;;;-8.25;63.40
69035;BME280;56091;55.756;37.412;2022-12-07T20:08:18;99581.72;;;-8.16;62.97
69035;BME280;56091;55.756;37.412;2022-12-07T20:13:19;99574.25;;;-8.21;63.37
69035;BME280;56091;55.756;37.412;2022-12-07T20:18:34;99581.16;;;-8.20;63.09
69035;BME280;56091;55.756;37.412;2022-12-07T20:23:35;99566.25;;;-8.19;63.22
69035;BME280;56091;55.756;37.412;2022-12-07T20:28:36;99563.97;;;-8.13;62.87
69035;BME280;56091;55.756;37.412;2022-12-07T20:33:37;99566.66;;;-8.24;63.35
69035;BME280;56091;55.756;37.412;2022-12-07T20:38:38;99542.91;;;-8.32;63.27
69035;BME280;56091;55.756;37.412;2022-12-07T20:43:39;99559.97;;;-8.17;63.41
69035;BME280;56091;55.756;37.412;2022-12-07T20:48:39;99539.59;;;-8.34;63.44
69035;BME280;56091;55.756;37.412;2022-12-07T20:53:40;99536.97;;;-8.34;63.44
69035;BME280;56091;55.756;37.412;2022-12-07T20:58:41;99534.22;;;-8.33;63.44
69035;BME280;56091;55.756;37.412;2022-12-07T21:03:42;99540.28;;;-8.11;62.81
69035;BME280;56091;55.756;37.412;2022-12-07T21:08:44;99528.78;;;-8.20;62.72
69035;BME280;56091;55.756;37.412;2022-12-07T21:13:46;99545.41;;;-8.10;62.72
69035;BME280;56091;55.756;37.412;2022-12-07T21:18:50;99525.28;;;-8.09;62.93
69035;BME280;56091;55.756;37.412;2022-12-07T21:23:52;99531.34;;;-8.09;62.44
69035;BME280;56091;55.756;37.412;2022-12-07T21:28:55;99514.72;;;-7.98;62.48
69035;BME280;56091;55.756;37.412;2022-12-07T21:33:57;99529.00;;;-7.81;61.82
69035;BME280;56091;55.756;37.412;2022-12-07T21:38:58;99495.31;;;-8.16;61.97
69035;BME280;56091;55.756;37.412;2022-12-07T21:44:05;99523.53;;;-7.99;62.39
69035;BME280;56091;55.756;37.412;2022-12-07T21:49:09;99510.84;;;-8.03;62.64
69035;BME280;56091;55.756;37.412;2022-12-07T21:54:11;99511.78;;;-8.05;62.44
69035;BME280;56091;55.756;37.412;2022-12-07T21:59:14;99512.56;;;-7.93;62.48
69035;BME280;56091;55.756;37.412;2022-12-07T22:04:28;99515.66;;;-7.99;62.66
69035;BME280;56091;55.756;37.412;2022-12-07T22:09:29;99519.31;;;-7.90;62.89
69035;BME280;56091;55.756;37.412;2022-12-07T22:14:29;99511.03;;;-7.86;62.96
69035;BME280;56091;55.756;37.412;2022-12-07T22:19:49;99513.81;;;-7.87;63.30
69035;BME280;56091;55.756;37.412;2022-12-07T22:24:49;99504.81;;;-7.94;63.95
69035;BME280;56091;55.756;37.412;2022-12-07T22:29:51;99494.97;;;-8.12;65.08
69035;BME280;56091;55.756;37.412;2022-12-07T22:34:52;99510.88;;;-7.94;65.55
69035;BME280;56091;55.756;37.412;2022-12-07T22:39:53;99478.75;;;-7.96;65.00
69035;BME280;56091;55.756;37.412;2022-12-07T22:44:53;99486.66;;;-7.86;65.60
69035;BME280;56091;55.756;37.412;2022-12-07T22:49:57;99479.94;;;-7.79;65.64
69035;BME280;56091;55.756;37.412;2022-12-07T22:54:59;99488.78;;;-7.70;65.77
69035;BME280;56091;55.756;37.412;2022-12-07T23:00:00;99485.47;;;-7.72;66.19
69035;BME280;56091;55.756;37.412;2022-12-07T23:05:04;99467.56;;;-7.67;66.39
69035;BME280;56091;55.756;37.412;2022-12-07T23:10:08;99471.88;;;-7.56;66.02
69035;BME280;56091;55.756;37.412;2022-12-07T23:15:09;99469.72;;;-7.72;66.32
69035;BME280;56091;55.756;37.412;2022-12-07T23:20:10;99450.88;;;-7.66;66.58
69035;BME280;56091;55.756;37.412;2022-12-07T23:25:11;99454.66;;;-7.49;66.59
69035;BME280;56091;55.756;37.412;2022-12-07T23:30:13;99438.06;;;-7.59;66.41
69035;BME280;56091;55.756;37.412;2022-12-07T23:35:16;99446.63;;;-7.48;66.63
69035;BME280;56091;55.756;37.412;2022-12-07T23:40:17;99449.94;;;-7.46;66.65
69035;BME280;56091;55.756;37.412;2022-12-07T23:45:18;99441.28;;;-7.36;66.51
69035;BME280;56091;55.756;37.412;2022-12-07T23:50:19;99442.53;;;-7.31;66.61
69035;BME280;56091;55.756;37.412;2022-12-07T23:55:20;99440.03;;;-7.32;66.68
